createdAt,value
2022-09-04T00:01:40.112Z,93.98
2022-09-04T00:04:25.826Z,94.26
2022-09-04T00:07:03.477Z,94.32
2022-09-04T00:09:42.630Z,94.87
2022-09-04T00:12:10.797Z,94.97
2022-09-04T00:14:44.252Z,95.06
2022-09-04T00:17:21.016Z,94.77
2022-09-04T00:19:53.880Z,95.30
2022-09-04T00:22:30.264Z,95.05
2022-09-04T00:25:12.289Z,95.01
2022-09-04T00:27:45.206Z,94.49
2022-09-04T00:30:17.326Z,94.22
2022-09-04T00:32:49.840Z,94.95
2022-09-04T00:35:21.802Z,94.81
2022-09-04T00:37:56.609Z,94.60
2022-09-04T00:40:31.451Z,94.78
2022-09-04T00:43:32.149Z,94.62
2022-09-04T00:46:13.076Z,94.22
2022-09-04T00:49:01.793Z,93.59
2022-09-04T00:51:37.028Z,94.56
2022-09-04T00:54:19.176Z,94.14
2022-09-04T00:57:26.437Z,94.00
2022-09-04T01:00:16.226Z,94.03
2022-09-04T01:03:23.864Z,93.79
2022-09-04T01:06:13.379Z,93.81
2022-09-04T01:08:56.711Z,93.88
2022-09-04T01:11:38.260Z,93.66
2022-09-04T01:14:13.331Z,93.84
2022-09-04T01:16:48.638Z,93.36
2022-09-04T01:19:31.135Z,93.43
2022-09-04T01:22:13.709Z,92.97
2022-09-04T01:25:05.672Z,92.71
2022-09-04T01:27:43.853Z,92.59
2022-09-04T01:30:14.109Z,92.30
2022-09-04T01:32:54.488Z,92.21
2022-09-04T01:35:33.542Z,91.70
2022-09-04T01:38:11.098Z,91.75
2022-09-04T01:40:45.180Z,91.57
2022-09-04T01:43:17.559Z,91.88
2022-09-04T01:46:07.039Z,91.68
2022-09-04T01:48:43.552Z,91.73
2022-09-04T01:51:19.812Z,91.62
2022-09-04T01:53:56.083Z,91.36
2022-09-04T01:56:32.448Z,92.00
2022-09-04T01:59:12.112Z,91.97
2022-09-04T02:01:49.092Z,92.10
2022-09-04T02:04:24.654Z,92.52
2022-09-04T02:07:00.573Z,93.19
2022-09-04T02:09:37.312Z,93.40
2022-09-04T02:12:19.073Z,93.57
2022-09-04T02:14:58.701Z,93.68
2022-09-04T02:17:39.170Z,93.81
2022-09-04T02:20:18.380Z,93.86
2022-09-04T02:22:59.948Z,93.50
2022-09-04T02:25:31.274Z,94.12
2022-09-04T02:28:09.337Z,94.18
2022-09-04T02:30:45.288Z,94.43
2022-09-04T02:33:19.548Z,94.02
2022-09-04T02:35:53.349Z,94.76
2022-09-04T02:38:28.297Z,94.78
2022-09-04T02:41:02.812Z,94.78
2022-09-04T02:43:45.371Z,95.02
2022-09-04T02:46:19.485Z,94.91
2022-09-04T02:49:02.238Z,95.55
2022-09-04T02:51:47.313Z,95.74
2022-09-04T02:54:26.529Z,95.74
2022-09-04T02:57:09.313Z,95.44
2022-09-04T02:59:47.523Z,95.01
2022-09-04T03:02:23.923Z,94.90
2022-09-04T03:05:00.558Z,94.89
2022-09-04T03:07:32.678Z,94.56
2022-09-04T03:10:07.852Z,94.61
2022-09-04T03:12:41.081Z,94.21
2022-09-04T03:15:19.816Z,94.23
2022-09-04T03:17:58.825Z,94.12
2022-09-04T03:20:28.072Z,93.88
2022-09-04T03:23:01.287Z,93.71
2022-09-04T03:25:56.968Z,93.52
2022-09-04T03:28:37.034Z,93.35
2022-09-04T03:31:20.579Z,93.73
2022-09-04T03:33:59.534Z,93.50
2022-09-04T03:36:40.114Z,93.57
2022-09-04T03:39:16.393Z,93.17
2022-09-04T03:41:52.544Z,93.01
2022-09-04T03:44:32.561Z,93.10
2022-09-04T03:47:10.811Z,93.11
2022-09-04T03:50:00.625Z,93.14
2022-09-04T03:52:35.526Z,93.14
2022-09-04T03:55:36.327Z,93.54
2022-09-04T03:58:19.302Z,92.93
2022-09-04T04:01:04.091Z,93.37
2022-09-04T04:03:52.002Z,93.73
2022-09-04T04:06:29.822Z,93.82
2022-09-04T04:09:11.740Z,93.77
2022-09-04T04:11:53.266Z,93.94
2022-09-04T04:14:46.088Z,93.86
2022-09-04T04:17:33.068Z,94.16
2022-09-04T04:20:14.036Z,94.26
2022-09-04T04:23:00.665Z,94.13
2022-09-04T04:25:59.802Z,93.91
2022-09-04T04:28:43.850Z,94.33
2022-09-04T04:31:23.374Z,94.30
2022-09-04T04:34:00.444Z,94.44
2022-09-04T04:36:35.808Z,94.10
2022-09-04T04:39:15.110Z,94.28
2022-09-04T04:42:07.997Z,94.17
2022-09-04T04:45:10.651Z,94.32
2022-09-04T04:47:57.570Z,94.38
2022-09-04T04:50:36.648Z,93.85
2022-09-04T04:53:12.251Z,93.54
2022-09-04T04:55:49.530Z,93.31
2022-09-04T04:58:44.245Z,92.66
2022-09-04T05:01:24.512Z,92.44
2022-09-04T05:04:06.250Z,91.81
2022-09-04T05:06:40.763Z,91.25
2022-09-04T05:09:17.428Z,90.62
2022-09-04T05:11:56.769Z,89.53
2022-09-04T05:14:36.500Z,88.56
2022-09-04T05:17:10.848Z,86.35
2022-09-04T05:19:46.068Z,86.17
2022-09-04T05:22:19.793Z,85.31
2022-09-04T05:24:59.946Z,82.24
2022-09-04T05:27:52.669Z,78.16
2022-09-04T05:30:29.547Z,78.46
2022-09-04T05:33:02.236Z,76.35
2022-09-04T05:35:39.132Z,72.19
2022-09-04T05:38:12.161Z,68.17
2022-09-04T05:40:56.237Z,65.48
2022-09-04T05:43:34.342Z,63.77
2022-09-04T05:46:08.342Z,62.89
2022-09-04T05:48:43.994Z,59.91
2022-09-04T05:51:36.483Z,54.16
2022-09-04T05:54:30.934Z,53.95
2022-09-04T05:57:12.895Z,55.69
2022-09-04T06:00:04.203Z,51.30
2022-09-04T06:02:50.101Z,52.73
2022-09-04T06:05:28.601Z,52.96
2022-09-04T06:08:07.234Z,54.13
2022-09-04T06:10:47.356Z,48.63
2022-09-04T06:13:46.010Z,48.89
2022-09-04T06:16:33.433Z,51.16
2022-09-04T06:19:19.450Z,49.41
2022-09-04T06:22:09.538Z,45.14
2022-09-04T06:24:52.295Z,44.36
2022-09-04T06:27:35.523Z,45.15
2022-09-04T06:30:08.749Z,44.70
2022-09-04T06:33:08.757Z,42.91
2022-09-04T06:36:03.413Z,42.85
2022-09-04T06:38:43.316Z,46.59
2022-09-04T06:41:33.429Z,42.30
2022-09-04T06:44:13.420Z,44.65
2022-09-04T06:46:46.162Z,43.76
2022-09-04T06:49:24.021Z,43.79
2022-09-04T06:52:10.045Z,43.47
2022-09-04T06:54:50.206Z,46.40
2022-09-04T06:57:48.032Z,44.02
2022-09-04T07:00:16.820Z,45.53
2022-09-04T07:03:03.692Z,42.70
2022-09-04T07:05:40.819Z,42.94
2022-09-04T07:08:20.582Z,43.25
2022-09-04T07:11:00.032Z,45.12
2022-09-04T07:13:51.869Z,42.42
2022-09-04T07:16:31.115Z,41.19
2022-09-04T07:19:16.912Z,42.60
2022-09-04T07:21:52.171Z,43.23
2022-09-04T07:24:47.277Z,42.96
2022-09-04T07:27:21.877Z,44.36
2022-09-04T07:29:54.703Z,44.87
2022-09-04T07:32:28.199Z,43.50
2022-09-04T07:35:01.686Z,44.21
2022-09-04T07:37:39.857Z,44.93
2022-09-04T07:40:12.844Z,45.25
2022-09-04T07:42:48.207Z,46.51
2022-09-04T07:45:29.348Z,46.88
2022-09-04T07:48:07.198Z,47.82
2022-09-04T07:50:40.197Z,47.36
2022-09-04T07:53:22.921Z,47.87
2022-09-04T07:55:53.861Z,47.08
2022-09-04T07:58:40.924Z,46.61
2022-09-04T08:01:24.625Z,46.25
2022-09-04T08:04:10.815Z,46.78
2022-09-04T08:06:45.277Z,47.36
2022-09-04T08:09:47.938Z,47.23
2022-09-04T08:12:48.142Z,47.58
2022-09-04T08:15:21.716Z,48.37
2022-09-04T08:18:06.245Z,48.01
2022-09-04T08:20:42.870Z,47.90
2022-09-04T08:23:53.593Z,48.51
2022-09-04T08:26:35.689Z,48.69
2022-09-04T08:29:19.316Z,48.39
2022-09-04T08:31:55.865Z,48.61
2022-09-04T08:34:53.126Z,48.38
2022-09-04T08:37:27.044Z,48.13
2022-09-04T08:40:14.070Z,48.82
2022-09-04T08:43:11.119Z,48.77
2022-09-04T08:46:14.070Z,48.47
2022-09-04T08:49:38.433Z,48.42
2022-09-04T08:52:37.260Z,48.63
2022-09-04T08:55:22.436Z,48.23
2022-09-04T08:58:26.418Z,47.51
2022-09-04T09:01:18.215Z,47.05
2022-09-04T09:04:08.305Z,47.27
2022-09-04T09:07:13.642Z,48.82
2022-09-04T09:10:15.045Z,49.49
2022-09-04T09:13:21.641Z,50.50
2022-09-04T09:16:25.733Z,48.76
2022-09-04T09:19:22.702Z,48.29
2022-09-04T09:22:10.305Z,48.14
2022-09-04T09:25:00.801Z,47.17
2022-09-04T09:28:09.695Z,48.26
2022-09-04T09:31:00.232Z,49.93
2022-09-04T09:33:54.710Z,50.26
2022-09-04T09:36:44.318Z,50.54
2022-09-04T09:39:45.558Z,51.06
2022-09-04T09:42:43.229Z,48.57
2022-09-04T09:46:00.706Z,48.43
2022-09-04T09:48:52.870Z,48.50
2022-09-04T09:51:57.897Z,50.22
2022-09-04T09:55:02.813Z,51.67
2022-09-04T09:58:05.661Z,51.94
2022-09-04T10:00:46.260Z,51.08
2022-09-04T10:03:49.726Z,52.90
2022-09-04T10:06:59.221Z,52.50
2022-09-04T10:10:06.617Z,51.38
2022-09-04T10:13:00.926Z,49.19
2022-09-04T10:15:55.093Z,50.16
2022-09-04T10:19:00.776Z,52.23
2022-09-04T10:22:01.968Z,51.32
2022-09-04T10:24:47.133Z,50.97
2022-09-04T10:27:49.689Z,50.69
2022-09-04T10:30:19.684Z,51.50
2022-09-04T10:33:20.928Z,51.86
2022-09-04T10:36:06.213Z,52.85
2022-09-04T10:38:59.465Z,51.48
2022-09-04T10:41:41.448Z,50.06
2022-09-04T10:44:42.041Z,50.75
2022-09-04T10:47:25.066Z,51.61
2022-09-04T10:50:17.621Z,52.18
2022-09-04T10:53:06.582Z,52.37
2022-09-04T10:55:54.138Z,49.57
2022-09-04T10:58:30.473Z,49.93
2022-09-04T11:01:27.705Z,48.68
2022-09-04T11:04:18.165Z,49.35
2022-09-04T11:07:10.728Z,49.98
2022-09-04T11:10:05.261Z,51.34
2022-09-04T11:12:50.833Z,50.75
2022-09-04T11:15:53.568Z,50.09
2022-09-04T11:19:00.789Z,49.12
2022-09-04T11:22:01.797Z,49.96
2022-09-04T11:25:01.701Z,50.65
2022-09-04T11:28:07.250Z,49.75
2022-09-04T11:30:56.622Z,49.53
2022-09-04T11:34:08.097Z,50.28
2022-09-04T11:37:15.313Z,50.93
2022-09-04T11:40:06.262Z,49.46
2022-09-04T11:42:46.728Z,49.24
2022-09-04T11:45:43.929Z,50.58
2022-09-04T11:48:43.039Z,51.51
2022-09-04T11:51:40.463Z,50.40
2022-09-04T11:54:30.537Z,50.60
2022-09-04T11:57:08.152Z,49.14
2022-09-04T11:59:59.579Z,48.90
2022-09-04T12:02:56.658Z,48.54
2022-09-04T12:05:40.370Z,48.80
2022-09-04T12:08:27.452Z,48.48
2022-09-04T12:11:09.826Z,50.09
2022-09-04T12:13:57.967Z,49.27
2022-09-04T12:17:15.289Z,49.23
2022-09-04T12:20:10.192Z,50.56
2022-09-04T12:23:09.213Z,49.90
2022-09-04T12:26:01.363Z,48.53
2022-09-04T12:29:04.022Z,48.52
2022-09-04T12:32:12.045Z,48.11
2022-09-04T12:35:18.377Z,47.85
2022-09-04T12:38:08.042Z,47.43
2022-09-04T12:40:46.050Z,48.06
2022-09-04T12:43:28.924Z,47.44
2022-09-04T12:46:10.722Z,46.65
2022-09-04T12:48:48.096Z,46.75
2022-09-04T12:51:24.616Z,46.81
2022-09-04T12:54:08.988Z,46.34
2022-09-04T12:56:49.118Z,46.58
2022-09-04T12:59:33.579Z,47.16
2022-09-04T13:02:06.562Z,46.80
2022-09-04T13:04:41.937Z,46.62
2022-09-04T13:07:24.319Z,46.41
2022-09-04T13:09:59.158Z,46.05
2022-09-04T13:12:38.296Z,46.09
2022-09-04T13:15:30.981Z,46.36
2022-09-04T13:18:14.163Z,45.99
2022-09-04T13:20:52.404Z,45.64
2022-09-04T13:23:36.911Z,45.29
2022-09-04T13:26:25.073Z,45.34
2022-09-04T13:29:04.410Z,46.15
2022-09-04T13:31:51.295Z,46.45
2022-09-04T13:34:28.996Z,47.06
2022-09-04T13:37:07.289Z,46.09
2022-09-04T13:39:57.572Z,46.25
2022-09-04T13:42:55.173Z,46.13
2022-09-04T13:45:26.385Z,46.51
2022-09-04T13:47:59.170Z,46.23
2022-09-04T13:50:32.148Z,46.52
2022-09-04T13:53:10.989Z,46.18
2022-09-04T13:55:41.670Z,46.43
2022-09-04T13:58:15.542Z,45.92
2022-09-04T14:00:46.981Z,45.72
2022-09-04T14:03:30.732Z,45.34
2022-09-04T14:05:59.192Z,46.00
2022-09-04T14:08:31.174Z,45.98
2022-09-04T14:11:34.043Z,46.42
2022-09-04T14:14:21.881Z,46.26
2022-09-04T14:16:52.664Z,46.07
2022-09-04T14:19:32.387Z,45.55
2022-09-04T14:22:17.830Z,45.82
2022-09-04T14:24:56.329Z,45.96
2022-09-04T14:27:34.328Z,45.64
2022-09-04T14:30:07.322Z,46.18
2022-09-04T14:32:51.713Z,45.16
2022-09-04T14:35:35.151Z,44.85
2022-09-04T14:38:19.069Z,45.34
2022-09-04T14:40:56.558Z,45.78
2022-09-04T14:43:33.778Z,45.87
2022-09-04T14:46:16.738Z,45.74
2022-09-04T14:48:51.066Z,45.88
2022-09-04T14:51:35.181Z,46.84
2022-09-04T14:54:03.765Z,46.85
2022-09-04T14:56:37.544Z,46.51
2022-09-04T14:59:18.132Z,46.82
2022-09-04T15:02:07.839Z,47.18
2022-09-04T15:04:44.612Z,47.31
2022-09-04T15:07:30.726Z,47.85
2022-09-04T15:10:10.782Z,49.06
2022-09-04T15:12:43.657Z,49.83
2022-09-04T15:15:20.056Z,50.32
2022-09-04T15:17:52.810Z,50.11
2022-09-04T15:20:23.456Z,50.08
2022-09-04T15:22:57.493Z,50.67
2022-09-04T15:25:58.791Z,51.66
2022-09-04T15:28:34.445Z,52.04
2022-09-04T15:31:15.934Z,53.51
2022-09-04T15:33:47.443Z,53.61
2022-09-04T15:36:20.783Z,54.73
2022-09-04T15:38:53.320Z,54.99
2022-09-04T15:41:27.288Z,55.51
2022-09-04T15:44:01.589Z,55.71
2022-09-04T15:46:38.890Z,56.29
2022-09-04T15:49:22.165Z,57.35
2022-09-04T15:51:56.084Z,57.46
2022-09-04T15:54:32.301Z,58.39
2022-09-04T15:57:08.383Z,58.77
2022-09-04T15:59:44.549Z,59.65
2022-09-04T16:02:24.477Z,60.43
2022-09-04T16:05:03.266Z,60.29
2022-09-04T16:07:40.315Z,60.86
2022-09-04T16:10:17.213Z,60.93
2022-09-04T16:12:52.772Z,61.83
2022-09-04T16:15:27.014Z,61.67
2022-09-04T16:17:56.301Z,61.68
2022-09-04T16:20:33.321Z,62.25
2022-09-04T16:23:03.978Z,62.26
2022-09-04T16:25:38.540Z,63.52
2022-09-04T16:28:09.076Z,63.61
2022-09-04T16:30:41.446Z,63.98
2022-09-04T16:33:28.079Z,64.30
2022-09-04T16:36:02.981Z,64.03
2022-09-04T16:38:40.488Z,63.91
2022-09-04T16:41:14.808Z,64.06
2022-09-04T16:44:21.273Z,63.88
2022-09-04T16:47:04.436Z,63.47
2022-09-04T16:49:40.108Z,63.83
2022-09-04T16:52:46.544Z,63.76
2022-09-04T16:55:21.511Z,64.03
2022-09-04T16:58:07.412Z,64.81
2022-09-04T17:00:58.297Z,65.08
2022-09-04T17:03:48.052Z,65.98
2022-09-04T17:06:26.414Z,65.35
2022-09-04T17:09:05.545Z,65.43
2022-09-04T17:11:41.033Z,65.72
2022-09-04T17:14:18.732Z,66.04
2022-09-04T17:16:54.145Z,66.05
2022-09-04T17:19:22.885Z,67.16
2022-09-04T17:28:55.846Z,67.28
2022-09-04T17:29:19.378Z,68.70
2022-09-04T17:29:19.626Z,69.36
2022-09-04T17:31:42.974Z,70.36
2022-09-04T17:40:36.662Z,70.64
2022-09-04T17:40:53.995Z,71.67
2022-09-04T17:40:56.293Z,71.63
2022-09-04T17:43:22.660Z,72.76
2022-09-04T17:46:02.172Z,72.80
2022-09-04T17:48:34.102Z,73.40
2022-09-04T17:51:03.908Z,74.41
2022-09-04T17:53:34.989Z,75.14
2022-09-04T17:56:11.037Z,75.15
2022-09-04T17:58:47.366Z,76.11
2022-09-04T18:01:22.113Z,76.69
2022-09-04T18:04:20.535Z,77.47
2022-09-04T18:06:56.240Z,77.62
2022-09-04T18:09:29.982Z,79.01
2022-09-04T18:12:10.200Z,79.33
2022-09-04T18:14:45.262Z,79.33
2022-09-04T18:17:22.094Z,79.81
2022-09-04T18:19:57.941Z,80.67
2022-09-04T18:22:32.011Z,80.26
2022-09-04T18:25:11.590Z,81.98
2022-09-04T18:28:11.415Z,82.38
2022-09-04T18:33:19.803Z,83.31
2022-09-04T18:37:16.262Z,83.97
2022-09-04T18:37:21.166Z,83.60
2022-09-04T18:39:50.629Z,83.73
2022-09-04T18:48:02.677Z,84.58
2022-09-04T18:50:37.751Z,83.73
2022-09-04T18:50:43.933Z,83.88
2022-09-04T18:51:21.231Z,83.51
2022-09-04T18:53:55.945Z,83.64
2022-09-04T18:56:28.719Z,83.09
2022-09-04T18:59:05.166Z,82.80
2022-09-04T19:01:41.540Z,82.49
2022-09-04T19:04:41.488Z,81.99
2022-09-04T19:07:15.451Z,81.97
2022-09-04T19:09:59.404Z,81.41
2022-09-04T19:12:46.953Z,80.79
2022-09-04T19:15:36.590Z,80.39
2022-09-04T19:18:14.867Z,80.70
2022-09-04T19:20:48.157Z,81.07
2022-09-04T19:23:26.851Z,80.97
2022-09-04T19:26:00.476Z,81.28
2022-09-04T19:28:39.428Z,80.99
2022-09-04T19:31:16.487Z,80.59
2022-09-04T19:33:50.667Z,80.41
2022-09-04T19:36:25.437Z,80.37
2022-09-04T19:45:57.587Z,80.42
2022-09-04T19:46:06.078Z,80.49
2022-09-04T19:46:17.545Z,80.56
2022-09-04T19:48:05.952Z,81.59
2022-09-04T19:53:30.585Z,81.17
2022-09-04T19:53:41.066Z,81.34
2022-09-04T19:56:19.582Z,81.95
2022-09-04T19:58:54.528Z,81.73
2022-09-04T20:01:27.142Z,81.59
2022-09-04T20:04:00.713Z,81.87
2022-09-04T20:06:32.889Z,82.13
2022-09-04T20:09:06.325Z,82.33
2022-09-04T20:11:38.998Z,82.12
2022-09-04T20:14:15.575Z,82.11
2022-09-04T20:16:54.785Z,81.94
2022-09-04T20:19:28.571Z,82.26
2022-09-04T20:22:01.748Z,82.30
2022-09-04T20:24:37.422Z,82.22
2022-09-04T20:27:15.511Z,82.32
2022-09-04T20:29:54.564Z,82.27
2022-09-04T20:32:27.310Z,82.35
2022-09-04T20:34:59.219Z,82.51
2022-09-04T20:37:45.911Z,82.41
2022-09-04T20:40:27.137Z,82.53
2022-09-04T20:43:10.425Z,82.43
2022-09-04T20:47:05.113Z,82.36
2022-09-04T20:52:53.162Z,82.61
2022-09-04T20:52:58.600Z,82.49
2022-09-04T20:54:51.713Z,82.31
2022-09-04T21:03:14.377Z,82.93
2022-09-04T21:03:21.363Z,82.62
2022-09-04T21:03:29.472Z,82.33
2022-09-04T21:06:18.761Z,82.92
2022-09-04T21:08:58.076Z,83.04
2022-09-04T21:11:39.697Z,83.09
2022-09-04T21:14:16.821Z,82.91
2022-09-04T21:17:34.345Z,82.77
2022-09-04T21:20:31.247Z,83.38
2022-09-04T21:23:21.703Z,83.14
2022-09-04T21:25:56.294Z,83.17
2022-09-04T21:28:55.022Z,83.77
2022-09-04T21:31:44.586Z,83.83
2022-09-04T21:34:32.756Z,84.30
2022-09-04T21:37:14.936Z,84.43
2022-09-04T21:40:20.217Z,84.60
2022-09-04T21:43:13.031Z,84.76
2022-09-04T21:45:56.634Z,84.92
2022-09-04T21:48:51.155Z,84.74
2022-09-04T21:51:40.841Z,84.93
2022-09-04T21:54:38.448Z,84.63
2022-09-04T22:02:28.647Z,84.22
2022-09-04T22:02:43.090Z,84.44
2022-09-04T22:03:56.291Z,84.16
2022-09-04T22:07:11.037Z,84.15
2022-09-04T22:13:32.225Z,84.26
2022-09-04T22:13:39.968Z,83.61
2022-09-04T22:16:00.340Z,83.47
2022-09-04T22:18:48.468Z,83.38
2022-09-04T22:21:25.730Z,83.22
2022-09-04T22:24:31.255Z,83.39
2022-09-04T22:27:26.550Z,83.20
2022-09-04T22:30:06.977Z,83.16
2022-09-04T22:32:55.909Z,83.03
2022-09-04T22:35:59.462Z,82.91
2022-09-04T22:38:37.005Z,82.84
2022-09-04T22:41:26.496Z,82.65
2022-09-04T22:44:05.789Z,82.89
2022-09-04T22:46:57.696Z,82.87
2022-09-04T22:49:43.721Z,83.28
2022-09-04T22:52:42.314Z,83.46
2022-09-04T22:55:40.498Z,83.46
2022-09-04T22:58:43.899Z,83.68
2022-09-04T23:01:36.476Z,83.70
2022-09-04T23:04:20.522Z,83.55
2022-09-04T23:11:32.091Z,83.66
2022-09-04T23:13:46.187Z,83.92
2022-09-04T23:14:13.426Z,84.09
2022-09-04T23:17:04.058Z,84.18
2022-09-04T23:26:26.239Z,84.29
2022-09-04T23:26:43.217Z,84.01
2022-09-04T23:26:53.432Z,84.21
2022-09-04T23:29:13.916Z,84.12
2022-09-04T23:32:07.173Z,84.16
2022-09-04T23:35:14.865Z,83.86
2022-09-04T23:38:09.619Z,83.66
2022-09-04T23:40:43.809Z,83.65
2022-09-04T23:43:45.346Z,83.47
2022-09-04T23:46:36.909Z,83.23
2022-09-04T23:49:20.128Z,83.10
2022-09-04T23:51:57.018Z,82.96
2022-09-04T23:54:54.009Z,82.95
2022-09-04T23:57:28.743Z,82.88
